createdAt,value
2023-01-30T00:01:59.527Z,100.00
2023-01-30T00:06:02.701Z,100.00
2023-01-30T00:10:06.659Z,100.00
2023-01-30T00:14:10.516Z,100.00
2023-01-30T00:18:15.343Z,100.00
2023-01-30T00:22:18.967Z,100.00
2023-01-30T00:26:22.393Z,100.00
2023-01-30T00:30:25.775Z,100.00
2023-01-30T00:34:30.573Z,100.00
2023-01-30T00:38:33.614Z,100.00
2023-01-30T00:42:54.071Z,100.00
2023-01-30T00:47:10.189Z,100.00
2023-01-30T00:51:14.650Z,100.00
2023-01-30T00:55:20.353Z,100.00
2023-01-30T00:59:23.565Z,100.00
2023-01-30T01:03:26.774Z,100.00
2023-01-30T01:07:31.265Z,100.00
2023-01-30T01:11:34.760Z,100.00
2023-01-30T01:15:38.279Z,100.00
2023-01-30T01:19:41.473Z,100.00
2023-01-30T01:23:50.705Z,100.00
2023-01-30T01:27:53.786Z,100.00
2023-01-30T01:31:59.594Z,100.00
2023-01-30T01:36:06.452Z,100.00
2023-01-30T01:40:36.377Z,100.00
2023-01-30T01:45:02.174Z,100.00
2023-01-30T01:49:09.620Z,100.00
2023-01-30T01:53:15.887Z,100.00
2023-01-30T01:57:27.100Z,99.72
2023-01-30T02:01:31.444Z,100.00
2023-01-30T02:05:43.828Z,98.89
2023-01-30T02:09:46.825Z,99.10
2023-01-30T02:13:52.040Z,99.97
2023-01-30T02:17:55.535Z,98.36
2023-01-30T02:22:22.607Z,98.01
2023-01-30T02:26:56.621Z,99.12
2023-01-30T02:31:27.515Z,98.81
2023-01-30T02:35:39.392Z,99.05
2023-01-30T02:39:53.616Z,99.34
2023-01-30T02:44:05.267Z,100.00
2023-01-30T02:48:13.453Z,100.00
2023-01-30T02:52:18.507Z,100.00
2023-01-30T02:56:22.233Z,100.00
2023-01-30T03:00:36.575Z,100.00
2023-01-30T03:04:55.763Z,100.00
2023-01-30T03:09:09.118Z,100.00
2023-01-30T03:13:24.136Z,100.00
2023-01-30T03:17:29.609Z,100.00
2023-01-30T03:21:34.061Z,100.00
2023-01-30T03:25:39.499Z,100.00
2023-01-30T03:29:42.703Z,100.00
2023-01-30T03:33:45.895Z,100.00
2023-01-30T03:37:50.601Z,100.00
2023-01-30T03:41:54.997Z,100.00
2023-01-30T03:45:58.249Z,100.00
2023-01-30T03:50:01.678Z,100.00
2023-01-30T03:54:06.268Z,100.00
2023-01-30T03:58:09.306Z,100.00
2023-01-30T04:02:12.331Z,100.00
2023-01-30T04:06:15.945Z,100.00
2023-01-30T04:10:21.267Z,97.07
2023-01-30T04:14:24.525Z,98.93
2023-01-30T04:18:27.547Z,97.47
2023-01-30T04:22:32.106Z,95.26
2023-01-30T04:26:36.744Z,95.27
2023-01-30T04:30:39.700Z,94.66
2023-01-30T04:34:45.337Z,93.91
2023-01-30T04:38:48.507Z,93.61
2023-01-30T04:42:53.170Z,92.72
2023-01-30T04:46:56.489Z,93.45
2023-01-30T04:50:59.758Z,93.76
2023-01-30T04:55:05.038Z,93.85
2023-01-30T04:59:09.407Z,94.89
2023-01-30T05:07:31.837Z,94.01
2023-01-30T05:11:35.490Z,93.74
2023-01-30T05:15:41.553Z,92.67
2023-01-30T05:19:44.726Z,94.00
2023-01-30T05:23:47.948Z,94.40
2023-01-30T05:27:53.380Z,94.19
2023-01-30T05:31:57.992Z,95.25
2023-01-30T05:36:01.330Z,95.17
2023-01-30T05:40:04.546Z,95.43
2023-01-30T05:44:11.835Z,94.22
2023-01-30T05:48:21.555Z,93.40
2023-01-30T05:52:24.783Z,93.90
2023-01-30T05:56:27.655Z,92.64
2023-01-30T06:00:30.837Z,91.19
2023-01-30T06:04:36.063Z,92.80
2023-01-30T06:08:39.367Z,91.26
2023-01-30T06:12:42.350Z,91.23
2023-01-30T06:16:45.621Z,90.58
2023-01-30T06:20:51.311Z,91.42
2023-01-30T06:24:54.069Z,89.64
2023-01-30T06:28:57.245Z,89.75
2023-01-30T06:33:00.514Z,88.52
2023-01-30T06:37:05.212Z,88.62
2023-01-30T06:41:08.786Z,88.46
2023-01-30T06:45:12.896Z,88.72
2023-01-30T06:49:16.169Z,88.11
2023-01-30T06:53:20.850Z,87.65
2023-01-30T06:57:23.934Z,89.05
2023-01-30T07:01:28.929Z,88.54
2023-01-30T07:05:32.302Z,88.62
2023-01-30T07:09:36.834Z,90.75
2023-01-30T07:13:40.362Z,93.26
2023-01-30T07:17:44.038Z,96.78
2023-01-30T07:21:47.378Z,97.76
2023-01-30T07:25:51.683Z,99.76
2023-01-30T07:29:54.450Z,98.05
2023-01-30T07:33:57.563Z,95.92
2023-01-30T07:38:00.757Z,95.33
2023-01-30T07:42:06.472Z,95.52
2023-01-30T07:46:09.413Z,95.83
2023-01-30T07:50:13.284Z,93.44
2023-01-30T07:54:16.532Z,94.41
2023-01-30T07:58:20.953Z,94.32
2023-01-30T08:02:23.928Z,94.35
2023-01-30T08:06:31.637Z,93.68
2023-01-30T08:10:34.569Z,94.82
2023-01-30T08:14:39.252Z,95.47
2023-01-30T08:18:42.247Z,95.65
2023-01-30T08:22:45.644Z,94.18
2023-01-30T08:26:51.754Z,95.52
2023-01-30T08:30:56.560Z,94.84
2023-01-30T08:34:59.847Z,96.00
2023-01-30T08:39:03.075Z,96.66
2023-01-30T08:43:06.666Z,95.35
2023-01-30T08:47:11.851Z,95.53
2023-01-30T08:51:15.229Z,95.94
2023-01-30T08:55:18.543Z,97.08
2023-01-30T08:59:21.524Z,97.63
2023-01-30T09:03:28.674Z,97.98
2023-01-30T09:07:31.894Z,96.43
2023-01-30T09:11:38.883Z,95.99
2023-01-30T09:15:43.789Z,95.89
2023-01-30T09:19:50.890Z,97.63
2023-01-30T09:23:54.251Z,98.02
2023-01-30T09:27:57.375Z,97.33
2023-01-30T09:32:00.414Z,95.23
2023-01-30T09:36:05.119Z,94.98
2023-01-30T09:40:16.190Z,94.52
2023-01-30T09:44:40.723Z,91.49
2023-01-30T09:48:53.929Z,89.85
2023-01-30T09:53:04.779Z,88.63
2023-01-30T09:57:21.377Z,89.59
2023-01-30T10:01:32.867Z,91.73
2023-01-30T10:05:45.000Z,92.78
2023-01-30T10:10:01.571Z,94.59
2023-01-30T10:14:19.633Z,94.94
2023-01-30T10:18:43.204Z,96.83
2023-01-30T10:22:57.549Z,98.64
2023-01-30T10:27:04.621Z,99.84
2023-01-30T10:31:13.273Z,100.00
2023-01-30T10:35:20.597Z,100.00
2023-01-30T10:39:38.758Z,100.00
2023-01-30T10:43:49.220Z,100.00
2023-01-30T10:48:05.968Z,100.00
2023-01-30T10:52:24.608Z,100.00
2023-01-30T10:56:38.781Z,100.00
2023-01-30T11:00:48.557Z,100.00
2023-01-30T11:05:00.502Z,100.00
2023-01-30T11:09:06.184Z,100.00
2023-01-30T11:13:18.551Z,100.00
2023-01-30T11:17:33.933Z,100.00
2023-01-30T11:21:44.564Z,100.00
2023-01-30T11:26:05.483Z,96.78
2023-01-30T11:30:21.347Z,94.26
2023-01-30T11:34:26.481Z,94.14
2023-01-30T11:38:31.168Z,94.88
2023-01-30T11:42:34.557Z,95.83
2023-01-30T11:46:40.095Z,96.59
2023-01-30T11:50:49.574Z,100.00
2023-01-30T11:54:55.041Z,100.00
2023-01-30T11:59:02.361Z,100.00
2023-01-30T12:03:11.761Z,100.00
2023-01-30T12:07:23.659Z,100.00
2023-01-30T12:11:31.022Z,100.00
2023-01-30T12:15:36.254Z,100.00
2023-01-30T12:19:50.481Z,100.00
2023-01-30T12:24:05.993Z,100.00
2023-01-30T12:28:16.599Z,100.00
2023-01-30T12:32:24.078Z,100.00
2023-01-30T12:36:41.107Z,100.00
2023-01-30T12:40:53.935Z,100.00
2023-01-30T12:45:14.746Z,100.00
2023-01-30T12:49:39.717Z,100.00
2023-01-30T12:53:55.380Z,100.00
2023-01-30T12:58:03.449Z,100.00
2023-01-30T13:02:40.692Z,100.00
2023-01-30T13:06:59.802Z,100.00
2023-01-30T13:11:17.641Z,100.00
2023-01-30T13:15:27.914Z,100.00
2023-01-30T13:19:41.248Z,100.00
2023-01-30T13:23:55.871Z,100.00
2023-01-30T13:28:07.656Z,100.00
2023-01-30T13:32:18.999Z,100.00
2023-01-30T13:36:27.507Z,100.00
2023-01-30T13:40:38.715Z,100.00
2023-01-30T13:44:49.523Z,100.00
2023-01-30T13:49:17.597Z,100.00
2023-01-30T13:53:27.006Z,100.00
2023-01-30T13:57:48.879Z,100.00
2023-01-30T14:02:18.552Z,100.00
2023-01-30T14:06:37.592Z,100.00
2023-01-30T14:10:41.355Z,100.00
2023-01-30T14:14:59.070Z,100.00
2023-01-30T14:19:31.357Z,100.00
2023-01-30T14:23:37.813Z,100.00
2023-01-30T14:27:40.921Z,100.00
2023-01-30T14:31:49.580Z,100.00
2023-01-30T14:36:46.735Z,100.00
2023-01-30T14:41:28.001Z,100.00
2023-01-30T14:45:46.517Z,100.00
2023-01-30T14:49:49.096Z,100.00
2023-01-30T14:54:00.584Z,100.00
2023-01-30T14:58:19.798Z,100.00
2023-01-30T15:02:27.682Z,100.00
2023-01-30T15:06:37.153Z,100.00
2023-01-30T15:11:00.737Z,100.00
2023-01-30T15:15:17.308Z,100.00
2023-01-30T15:19:50.199Z,100.00
2023-01-30T15:24:10.014Z,100.00
2023-01-30T15:28:25.388Z,100.00
2023-01-30T15:32:32.059Z,100.00
2023-01-30T15:36:39.465Z,100.00
2023-01-30T15:40:43.452Z,100.00
2023-01-30T15:45:01.441Z,100.00
2023-01-30T15:49:23.143Z,100.00
2023-01-30T15:53:31.304Z,100.00
2023-01-30T15:57:37.738Z,100.00
2023-01-30T16:01:40.753Z,100.00
2023-01-30T16:05:51.002Z,100.00
2023-01-30T16:10:06.746Z,100.00
2023-01-30T16:14:14.971Z,100.00
2023-01-30T16:18:26.927Z,100.00
2023-01-30T16:22:36.670Z,100.00
2023-01-30T16:26:46.123Z,100.00
2023-01-30T16:30:58.100Z,100.00
2023-01-30T16:35:18.852Z,100.00
2023-01-30T16:39:31.344Z,100.00
2023-01-30T16:43:35.908Z,100.00
2023-01-30T16:47:42.746Z,100.00
2023-01-30T16:51:47.568Z,100.00
2023-01-30T16:55:59.703Z,100.00
2023-01-30T17:00:04.379Z,100.00
2023-01-30T17:04:21.109Z,100.00
2023-01-30T17:08:49.696Z,100.00
2023-01-30T17:12:54.397Z,100.00
2023-01-30T17:17:05.456Z,100.00
2023-01-30T17:21:12.394Z,100.00
2023-01-30T17:25:26.897Z,100.00
2023-01-30T17:29:48.848Z,100.00
2023-01-30T17:33:53.582Z,100.00
2023-01-30T17:38:05.364Z,100.00
2023-01-30T17:42:11.029Z,100.00
2023-01-30T17:46:16.344Z,100.00
2023-01-30T17:50:20.516Z,100.00
2023-01-30T17:54:25.498Z,100.00
2023-01-30T17:58:28.766Z,100.00
2023-01-30T18:02:33.689Z,100.00
2023-01-30T18:06:37.682Z,100.00
2023-01-30T18:10:40.831Z,100.00
2023-01-30T18:14:43.966Z,100.00
2023-01-30T18:18:48.436Z,100.00
2023-01-30T18:22:54.087Z,100.00
2023-01-30T18:26:58.436Z,100.00
2023-01-30T18:31:05.814Z,100.00
2023-01-30T18:35:11.691Z,100.00
2023-01-30T18:39:14.898Z,100.00
2023-01-30T18:43:23.502Z,100.00
2023-01-30T18:47:28.486Z,100.00
2023-01-30T18:51:39.424Z,100.00
2023-01-30T18:55:50.748Z,100.00
2023-01-30T18:59:54.132Z,100.00
2023-01-30T19:03:57.683Z,100.00
2023-01-30T19:08:02.092Z,100.00
2023-01-30T19:12:22.936Z,100.00
2023-01-30T19:16:28.379Z,100.00
2023-01-30T19:20:31.712Z,100.00
2023-01-30T19:24:41.516Z,100.00
2023-01-30T19:28:45.750Z,100.00
2023-01-30T19:32:50.660Z,100.00
2023-01-30T19:36:53.688Z,100.00
2023-01-30T19:40:58.395Z,100.00
2023-01-30T19:45:01.692Z,100.00
2023-01-30T19:49:05.765Z,100.00
2023-01-30T19:53:08.391Z,100.00
2023-01-30T19:57:14.032Z,100.00
2023-01-30T20:01:19.734Z,100.00
2023-01-30T20:05:23.489Z,100.00
2023-01-30T20:09:26.945Z,100.00
2023-01-30T20:13:34.776Z,100.00
2023-01-30T20:30:46.307Z,100.00
2023-01-30T20:34:49.684Z,100.00
2023-01-30T20:38:53.790Z,100.00
2023-01-30T20:42:57.127Z,100.00
2023-01-30T20:47:05.872Z,100.00
2023-01-30T20:51:11.221Z,100.00
2023-01-30T20:55:17.807Z,100.00
2023-01-30T20:59:24.519Z,100.00
2023-01-30T21:03:29.787Z,100.00
2023-01-30T21:07:34.667Z,100.00
2023-01-30T21:11:40.554Z,100.00
2023-01-30T21:15:47.395Z,100.00
2023-01-30T21:19:54.902Z,100.00
2023-01-30T21:24:01.612Z,100.00
2023-01-30T21:28:05.394Z,100.00
2023-01-30T21:32:08.470Z,100.00
2023-01-30T21:36:13.860Z,100.00
2023-01-30T21:40:34.796Z,100.00
2023-01-30T21:44:41.357Z,100.00
2023-01-30T21:48:48.641Z,100.00
2023-01-30T21:52:56.276Z,100.00
2023-01-30T21:56:59.763Z,100.00
2023-01-30T22:01:08.809Z,100.00
2023-01-30T22:05:12.474Z,100.00
2023-01-30T22:09:21.138Z,100.00
2023-01-30T22:13:24.870Z,100.00
2023-01-30T22:17:28.068Z,100.00
2023-01-30T22:21:34.429Z,100.00
2023-01-30T22:25:40.212Z,100.00
2023-01-30T22:29:43.446Z,100.00
2023-01-30T22:33:48.673Z,100.00
2023-01-30T22:37:52.374Z,100.00
2023-01-30T22:41:57.223Z,100.00
2023-01-30T22:46:05.007Z,100.00
2023-01-30T22:50:08.872Z,100.00
2023-01-30T22:54:13.058Z,100.00
2023-01-30T22:58:17.472Z,100.00
2023-01-30T23:02:20.927Z,100.00
2023-01-30T23:06:25.049Z,100.00
2023-01-30T23:10:27.617Z,100.00
2023-01-30T23:14:32.736Z,100.00
2023-01-30T23:18:54.871Z,100.00
2023-01-30T23:22:58.217Z,100.00
2023-01-30T23:27:03.397Z,100.00
2023-01-30T23:31:12.413Z,100.00
2023-01-30T23:35:16.121Z,100.00
2023-01-30T23:39:19.258Z,100.00
2023-01-30T23:43:22.169Z,100.00
2023-01-30T23:47:26.508Z,100.00
2023-01-30T23:51:31.789Z,100.00
2023-01-30T23:55:35.238Z,100.00
2023-01-30T23:59:38.919Z,100.00
